Anamosa, IA

10:31 AM CDT on July 27, 2016 (GMT -0500)
Castle Grove | | Change Station

Elev 961 ft 42.22 °N, 91.31 °W | Updated 54 seconds ago

Clear
Clear
81.1 °F
Feels Like 83 °F
N
2.0
Wind Variable Wind from ESE
Gusts 2.5 mph

Today
High -- | Low -- °F
--% Chance of Precip.
Yesterday
High -- | Low -- °F
Precip. -- in
Pressure 30.03 in
Visibility 10.0 miles
Clouds Clear
Heat Index 83 °F
Dew Point 65 °F
Humidity 58%
Rainfall 0.00 in
Snow Depth Not available.
5:53 AM 8:28 PM
Last Quarter, 42% visible
METAR KMXO 271515Z AUTO 00000KT 10SM CLR 26/21 A3003 RMK AO2
Pressure 30.03 in
Visibility 10.0 miles
Clouds Clear
Heat Index 83 °F
Dew Point 65 °F
Humidity 58%
Rainfall 0.00 in
Snow Depth Not available.
5:53 AM 8:28 PM
Last Quarter, 42% visible
METAR KMXO 271515Z AUTO 00000KT 10SM CLR 26/21 A3003 RMK AO2

10-Day Weather Forecast

Almanac

Astronomy

Jul. 27, 2016 Rise Set
Actual Time
Civil Twilight
Nautical Twilight
Astronomical Twilight
Moon
Length of Visible Light
Length of Day
Tomorrow will be .
, % of the Moon is Illuminated

Today's Extremes

State Highs State Lows

Community

WunderPhotos

Upload Photos

1,927,860 photos uploaded!

WunderBlog® & News

Nearby

Air Quality

  Air Quality AQ Index Pollutant
Not available.

Snow Depth

Station Depth Elevation

Earthquake Activity

City Distance Mag. Time & Date
Minimum magnitude displayed is 2.5.

Coastal Water Temperatures

Place Temperature

Stations

Nearby Weather Stations

Station Location Temp. Windchill Dew Point Humidity Wind Precip. Elev Updated Type
                   

Watches & Warnings

There are currently no watches in effect.